createdAt,value
2018-07-15T00:00:11.341Z,68.98
2018-07-15T00:01:11.337Z,69.07
2018-07-15T00:02:11.334Z,69.17
2018-07-15T00:03:11.335Z,69.07
2018-07-15T00:04:11.326Z,69.07
2018-07-15T00:05:11.322Z,68.98
2018-07-15T00:06:11.521Z,69.26
2018-07-15T00:07:11.315Z,68.88
2018-07-15T00:08:11.310Z,68.98
2018-07-15T00:09:11.307Z,68.59
2018-07-15T00:10:11.304Z,69.56
2018-07-15T00:11:11.303Z,69.65
2018-07-15T00:12:11.296Z,69.46
2018-07-15T00:13:11.293Z,69.74
2018-07-15T00:14:11.291Z,70.03
2018-07-15T00:15:11.285Z,69.93
2018-07-15T00:16:11.285Z,70.13
2018-07-15T00:17:11.277Z,70.80
2018-07-15T00:18:11.273Z,70.70
2018-07-15T00:19:11.269Z,70.99
2018-07-15T00:20:11.265Z,70.90
2018-07-15T00:21:11.261Z,70.86
2018-07-15T00:22:11.258Z,71.86
2018-07-15T00:23:11.255Z,71.44
2018-07-15T00:24:11.249Z,71.15
2018-07-15T00:25:11.246Z,71.53
2018-07-15T00:26:11.243Z,70.67
2018-07-15T00:27:11.239Z,70.86
2018-07-15T00:28:11.234Z,70.57
2018-07-15T00:29:11.234Z,70.67
2018-07-15T00:30:11.227Z,71.05
2018-07-15T00:31:11.223Z,72.01
2018-07-15T00:32:11.218Z,71.53
2018-07-15T00:33:11.214Z,71.44
2018-07-15T00:34:11.212Z,72.49
2018-07-15T00:35:11.206Z,72.01
2018-07-15T00:36:11.202Z,72.20
2018-07-15T00:37:11.198Z,72.49
2018-07-15T00:38:11.195Z,71.92
2018-07-15T00:39:11.192Z,72.59
2018-07-15T00:40:11.186Z,71.63
2018-07-15T00:41:11.182Z,72.39
2018-07-15T00:42:11.178Z,72.64
2018-07-15T00:43:11.174Z,72.78
2018-07-15T00:44:11.171Z,73.07
2018-07-15T00:45:11.166Z,73.45
2018-07-15T00:46:11.166Z,73.26
2018-07-15T00:47:11.158Z,73.65
2018-07-15T00:48:11.153Z,73.74
2018-07-15T00:49:11.149Z,73.22
2018-07-15T00:50:11.145Z,73.22
2018-07-15T00:51:11.141Z,73.22
2018-07-15T00:52:11.137Z,74.27
2018-07-15T00:53:11.133Z,73.32
2018-07-15T00:54:11.128Z,73.03
2018-07-15T00:55:11.188Z,73.41
2018-07-15T00:56:11.120Z,73.51
2018-07-15T00:57:11.115Z,73.80
2018-07-15T00:58:11.112Z,73.80
2018-07-15T00:59:11.108Z,73.70
2018-07-15T01:00:11.103Z,73.61
2018-07-15T01:01:11.099Z,73.90
2018-07-15T01:02:11.094Z,74.27
2018-07-15T01:03:11.090Z,74.47
2018-07-15T01:04:11.086Z,74.95
2018-07-15T01:05:11.081Z,74.66
2018-07-15T01:06:11.079Z,74.66
2018-07-15T01:07:11.073Z,75.04
2018-07-15T01:08:11.068Z,75.52
2018-07-15T01:09:11.064Z,75.43
2018-07-15T01:10:11.060Z,75.62
2018-07-15T01:11:11.055Z,75.52
2018-07-15T01:12:11.050Z,76.10
2018-07-15T01:13:11.046Z,75.23
2018-07-15T01:14:11.042Z,75.43
2018-07-15T01:15:11.040Z,75.23
2018-07-15T01:16:11.033Z,75.43
2018-07-15T01:17:11.029Z,75.62
2018-07-15T01:18:11.025Z,75.81
2018-07-15T01:19:11.021Z,75.90
2018-07-15T01:20:11.015Z,76.00
2018-07-15T01:21:11.013Z,75.62
2018-07-15T01:22:11.017Z,75.96
2018-07-15T01:23:11.006Z,76.54
2018-07-15T01:24:10.999Z,76.15
2018-07-15T01:25:10.998Z,76.44
2018-07-15T01:26:10.989Z,77.34
2018-07-15T01:27:10.985Z,76.77
2018-07-15T01:28:10.979Z,76.82
2018-07-15T01:29:10.975Z,77.40
2018-07-15T01:30:10.974Z,77.02
2018-07-15T01:31:10.967Z,77.59
2018-07-15T01:32:10.961Z,77.50
2018-07-15T01:33:10.957Z,77.59
2018-07-15T01:34:10.954Z,77.59
2018-07-15T01:35:10.948Z,77.69
2018-07-15T01:36:10.943Z,78.07
2018-07-15T01:37:10.938Z,77.69
2018-07-15T01:38:10.934Z,77.50
2018-07-15T01:39:10.930Z,77.50
2018-07-15T01:40:10.924Z,77.78
2018-07-15T01:41:10.919Z,77.69
2018-07-15T01:42:10.915Z,77.88
2018-07-15T01:43:10.911Z,78.17
2018-07-15T01:44:10.905Z,77.88
2018-07-15T01:45:10.902Z,77.50
2018-07-15T01:46:10.896Z,77.59
2018-07-15T01:47:10.893Z,77.31
2018-07-15T01:48:10.885Z,77.40
2018-07-15T01:49:10.882Z,77.40
2018-07-15T01:50:10.877Z,77.21
2018-07-15T01:51:10.872Z,77.59
2018-07-15T01:52:10.869Z,77.59
2018-07-15T01:53:10.863Z,77.59
2018-07-15T01:54:10.857Z,77.97
2018-07-15T01:55:10.853Z,77.97
2018-07-15T01:56:10.848Z,77.59
2018-07-15T01:57:10.843Z,78.03
2018-07-15T01:58:10.839Z,78.22
2018-07-15T01:59:10.835Z,78.70
2018-07-15T02:00:10.836Z,78.32
2018-07-15T02:01:10.824Z,78.80
2018-07-15T02:02:10.819Z,78.80
2018-07-15T02:03:10.815Z,78.99
2018-07-15T02:04:10.811Z,79.08
2018-07-15T02:05:10.805Z,78.89
2018-07-15T02:06:10.800Z,79.47
2018-07-15T02:07:10.795Z,79.37
2018-07-15T02:08:10.789Z,79.08
2018-07-15T02:09:10.787Z,79.18
2018-07-15T02:10:10.806Z,78.70
2018-07-15T02:11:10.782Z,77.55
2018-07-15T02:12:10.769Z,77.55
2018-07-15T02:13:10.764Z,78.03
2018-07-15T02:14:10.759Z,77.65
2018-07-15T02:15:10.754Z,78.51
2018-07-15T02:16:10.749Z,78.22
2018-07-15T02:17:10.744Z,78.51
2018-07-15T02:18:10.739Z,78.70
2018-07-15T02:19:10.734Z,79.37
2018-07-15T02:20:10.728Z,79.28
2018-07-15T02:21:10.725Z,78.99
2018-07-15T02:22:10.718Z,79.18
2018-07-15T02:23:10.713Z,79.28
2018-07-15T02:24:10.708Z,79.85
2018-07-15T02:25:10.703Z,79.28
2018-07-15T02:26:10.699Z,79.62
2018-07-15T02:27:10.693Z,79.66
2018-07-15T02:28:10.688Z,79.52
2018-07-15T02:29:10.682Z,79.95
2018-07-15T02:30:10.678Z,79.72
2018-07-15T02:31:10.673Z,79.72
2018-07-15T02:32:10.668Z,79.62
2018-07-15T02:33:10.662Z,79.91
2018-07-15T02:34:10.658Z,80.10
2018-07-15T02:35:10.654Z,80.38
2018-07-15T02:36:10.650Z,80.10
2018-07-15T02:37:10.642Z,81.15
2018-07-15T02:38:10.637Z,80.19
2018-07-15T02:39:10.682Z,80.38
2018-07-15T02:40:10.626Z,80.10
2018-07-15T02:41:10.622Z,80.77
2018-07-15T02:42:10.619Z,80.77
2018-07-15T02:43:10.615Z,80.58
2018-07-15T02:44:10.605Z,80.29
2018-07-15T02:45:10.600Z,80.48
2018-07-15T02:46:10.594Z,80.29
2018-07-15T02:47:10.590Z,80.71
2018-07-15T02:48:10.583Z,80.81
2018-07-15T02:49:10.579Z,80.67
2018-07-15T02:50:10.577Z,80.96
2018-07-15T02:51:10.568Z,80.58
2018-07-15T02:52:10.562Z,80.48
2018-07-15T02:53:10.557Z,80.96
2018-07-15T02:54:10.553Z,81.25
2018-07-15T02:55:10.550Z,81.15
2018-07-15T02:56:10.541Z,81.34
2018-07-15T02:57:10.536Z,81.15
2018-07-15T02:58:10.531Z,81.15
2018-07-15T02:59:10.527Z,81.44
2018-07-15T03:00:10.521Z,81.44
2018-07-15T03:01:10.518Z,81.54
2018-07-15T03:02:10.510Z,81.54
2018-07-15T03:03:10.506Z,81.25
2018-07-15T03:04:10.499Z,81.54
2018-07-15T03:05:10.494Z,81.73
2018-07-15T03:06:10.489Z,80.77
2018-07-15T03:07:10.484Z,81.44
2018-07-15T03:08:10.477Z,81.54
2018-07-15T03:09:10.474Z,81.54
2018-07-15T03:10:10.467Z,82.11
2018-07-15T03:11:10.462Z,81.92
2018-07-15T03:12:10.456Z,81.54
2018-07-15T03:13:10.451Z,81.73
2018-07-15T03:14:10.446Z,81.97
2018-07-15T03:15:10.441Z,82.07
2018-07-15T03:16:10.435Z,82.07
2018-07-15T03:17:10.465Z,82.17
2018-07-15T03:18:10.424Z,81.78
2018-07-15T03:19:10.419Z,82.35
2018-07-15T03:20:10.413Z,82.17
2018-07-15T03:21:10.408Z,82.64
2018-07-15T03:22:10.403Z,82.64
2018-07-15T03:23:10.403Z,82.35
2018-07-15T03:24:10.394Z,82.35
2018-07-15T03:25:10.388Z,82.54
2018-07-15T03:26:10.381Z,82.35
2018-07-15T03:27:10.378Z,82.45
2018-07-15T03:28:10.369Z,82.83
2018-07-15T03:29:10.368Z,82.83
2018-07-15T03:30:10.361Z,83.03
2018-07-15T03:31:10.355Z,83.40
2018-07-15T03:32:10.347Z,83.03
2018-07-15T03:33:10.342Z,83.40
2018-07-15T03:34:10.384Z,83.03
2018-07-15T03:35:10.335Z,83.22
2018-07-15T03:36:10.335Z,83.69
2018-07-15T03:37:10.319Z,83.60
2018-07-15T03:38:10.315Z,83.50
2018-07-15T03:39:10.309Z,83.84
2018-07-15T03:40:10.303Z,83.56
2018-07-15T03:41:10.304Z,83.94
2018-07-15T03:42:10.292Z,83.46
2018-07-15T03:43:10.289Z,83.75
2018-07-15T03:44:10.280Z,84.23
2018-07-15T03:45:10.280Z,84.17
2018-07-15T03:46:10.270Z,84.42
2018-07-15T03:47:10.269Z,84.42
2018-07-15T03:48:10.260Z,84.13
2018-07-15T03:49:10.458Z,84.42
2018-07-15T03:50:10.248Z,84.52
2018-07-15T03:51:10.243Z,84.42
2018-07-15T03:52:10.235Z,84.80
2018-07-15T03:53:10.235Z,84.89
2018-07-15T03:54:10.227Z,84.89
2018-07-15T03:55:10.223Z,84.80
2018-07-15T03:56:10.217Z,84.80
2018-07-15T03:57:10.213Z,84.99
2018-07-15T03:58:10.201Z,84.80
2018-07-15T03:59:10.196Z,84.70
2018-07-15T04:00:10.190Z,84.70
2018-07-15T04:01:10.190Z,85.09
2018-07-15T04:02:10.179Z,84.03
2018-07-15T04:03:10.173Z,83.94
2018-07-15T04:04:10.172Z,84.17
2018-07-15T04:05:10.167Z,83.79
2018-07-15T04:06:10.156Z,84.08
2018-07-15T04:07:10.152Z,84.08
2018-07-15T04:08:10.144Z,83.98
2018-07-15T04:09:10.139Z,83.89
2018-07-15T04:10:10.135Z,83.12
2018-07-15T04:11:10.128Z,83.50
2018-07-15T04:12:10.125Z,83.12
2018-07-15T04:13:10.116Z,83.03
2018-07-15T04:14:10.116Z,83.03
2018-07-15T04:15:10.109Z,83.69
2018-07-15T04:16:10.103Z,83.12
2018-07-15T04:17:10.094Z,83.22
2018-07-15T04:18:10.090Z,83.79
2018-07-15T04:19:10.085Z,83.12
2018-07-15T04:20:10.077Z,82.93
2018-07-15T04:21:10.072Z,83.40
2018-07-15T04:22:10.066Z,83.22
2018-07-15T04:23:10.064Z,83.12
2018-07-15T04:24:10.056Z,83.60
2018-07-15T04:25:10.050Z,83.79
2018-07-15T04:26:10.047Z,83.89
2018-07-15T04:27:10.038Z,83.03
2018-07-15T04:28:10.036Z,82.83
2018-07-15T04:29:10.028Z,83.22
2018-07-15T04:30:10.024Z,83.22
2018-07-15T04:31:10.021Z,83.12
2018-07-15T04:32:10.010Z,83.03
2018-07-15T04:33:10.005Z,83.03
2018-07-15T04:34:10.003Z,82.83
2018-07-15T04:35:09.995Z,82.64
2018-07-15T04:36:09.988Z,82.64
2018-07-15T04:37:09.987Z,82.45
2018-07-15T04:38:09.977Z,82.40
2018-07-15T04:39:09.972Z,83.16
2018-07-15T04:40:09.966Z,83.26
2018-07-15T04:41:09.960Z,82.78
2018-07-15T04:42:09.955Z,83.26
2018-07-15T04:43:09.950Z,83.06
2018-07-15T04:44:09.946Z,82.97
2018-07-15T04:45:09.939Z,82.78
2018-07-15T04:46:09.934Z,82.59
2018-07-15T04:47:09.932Z,82.40
2018-07-15T04:48:09.922Z,82.49
2018-07-15T04:49:09.917Z,82.11
2018-07-15T04:50:09.912Z,82.11
2018-07-15T04:51:09.908Z,82.49
2018-07-15T04:52:09.907Z,82.40
2018-07-15T04:53:09.898Z,81.92
2018-07-15T04:54:09.894Z,81.82
2018-07-15T04:55:09.885Z,81.73
2018-07-15T04:56:09.878Z,81.82
2018-07-15T04:57:09.873Z,81.34
2018-07-15T04:58:09.868Z,81.44
2018-07-15T04:59:09.862Z,81.73
2018-07-15T05:00:09.856Z,81.57
2018-07-15T05:01:09.851Z,81.63
2018-07-15T05:02:09.970Z,81.20
2018-07-15T05:04:09.834Z,81.00
2018-07-15T05:05:09.832Z,80.71
2018-07-15T05:06:09.826Z,80.81
2018-07-15T05:07:09.819Z,80.81
2018-07-15T05:08:09.816Z,80.62
2018-07-15T05:09:09.809Z,80.71
2018-07-15T05:10:09.803Z,80.62
2018-07-15T05:11:09.833Z,80.56
2018-07-15T05:12:09.993Z,79.85
2018-07-15T05:13:09.794Z,79.13
2018-07-15T05:14:09.788Z,79.99
2018-07-15T05:15:09.776Z,80.27
2018-07-15T05:16:09.770Z,80.56
2018-07-15T05:17:09.765Z,80.66
2018-07-15T05:18:09.760Z,81.13
2018-07-15T05:19:09.756Z,80.85
2018-07-15T05:20:09.749Z,79.99
2018-07-15T05:21:09.751Z,80.94
2018-07-15T05:22:09.740Z,79.99
2018-07-15T05:23:09.735Z,80.37
2018-07-15T05:24:09.729Z,80.79
2018-07-15T05:25:09.725Z,81.08
2018-07-15T05:26:09.723Z,80.99
2018-07-15T05:27:09.716Z,80.60
2018-07-15T05:28:09.711Z,80.41
2018-07-15T05:29:09.714Z,79.07
2018-07-15T05:30:09.708Z,79.36
2018-07-15T05:31:09.697Z,79.55
2018-07-15T05:32:09.692Z,79.64
2018-07-15T05:33:09.691Z,79.97
2018-07-15T05:34:09.683Z,80.32
2018-07-15T05:35:09.682Z,79.68
2018-07-15T05:36:09.674Z,80.07
2018-07-15T05:37:09.670Z,80.07
2018-07-15T05:38:09.666Z,80.45
2018-07-15T05:39:09.665Z,80.07
2018-07-15T05:40:09.663Z,79.59
2018-07-15T05:41:09.653Z,79.59
2018-07-15T05:42:09.649Z,80.35
2018-07-15T05:43:09.645Z,80.35
2018-07-15T05:44:09.661Z,80.35
2018-07-15T05:45:09.641Z,80.01
2018-07-15T05:46:09.633Z,79.14
2018-07-15T05:47:09.629Z,78.67
2018-07-15T05:48:09.633Z,79.72
2018-07-15T05:49:09.621Z,79.44
2018-07-15T05:50:09.618Z,79.14
2018-07-15T05:51:09.615Z,78.77
2018-07-15T05:52:09.609Z,77.94
2018-07-15T05:53:09.613Z,78.13
2018-07-15T05:54:09.609Z,77.56
2018-07-15T05:55:09.599Z,76.59
2018-07-15T05:56:09.598Z,76.21
2018-07-15T05:57:09.592Z,75.35
2018-07-15T05:58:09.589Z,75.20
2018-07-15T05:59:09.585Z,75.29
2018-07-15T06:00:09.581Z,75.48
2018-07-15T06:01:09.578Z,74.33
2018-07-15T06:02:09.579Z,74.52
2018-07-15T06:03:09.575Z,74.62
2018-07-15T06:04:09.571Z,74.62
2018-07-15T06:05:09.774Z,74.81
2018-07-15T06:06:09.604Z,75.13
2018-07-15T06:07:09.563Z,75.13
2018-07-15T06:08:09.561Z,75.04
2018-07-15T06:09:09.552Z,74.37
2018-07-15T06:10:09.550Z,73.79
2018-07-15T06:11:09.548Z,73.98
2018-07-15T06:12:09.545Z,74.21
2018-07-15T06:13:09.540Z,72.96
2018-07-15T06:14:09.539Z,72.29
2018-07-15T06:15:09.537Z,72.38
2018-07-15T06:16:09.532Z,72.86
2018-07-15T06:17:09.539Z,71.91
2018-07-15T06:18:09.529Z,72.29
2018-07-15T06:19:09.531Z,72.42
2018-07-15T06:20:09.521Z,73.09
2018-07-15T06:21:09.523Z,72.71
2018-07-15T06:22:09.516Z,73.15
2018-07-15T06:23:09.514Z,72.80
2018-07-15T06:24:09.511Z,73.67
2018-07-15T06:25:09.512Z,73.86
2018-07-15T06:26:09.510Z,72.71
2018-07-15T06:27:09.507Z,72.61
2018-07-15T06:28:09.501Z,71.65
2018-07-15T06:29:09.499Z,70.62
2018-07-15T06:30:09.497Z,70.72
2018-07-15T06:31:09.495Z,72.17
2018-07-15T06:32:09.492Z,72.07
2018-07-15T06:33:09.490Z,71.78
2018-07-15T06:34:09.490Z,71.01
2018-07-15T06:35:09.486Z,70.66
2018-07-15T06:36:09.486Z,71.72
2018-07-15T06:37:09.482Z,70.95
2018-07-15T06:38:09.480Z,71.53
2018-07-15T06:39:09.478Z,70.66
2018-07-15T06:40:09.478Z,68.64
2018-07-15T06:41:09.476Z,69.70
2018-07-15T06:42:09.475Z,69.89
2018-07-15T06:43:09.471Z,68.26
2018-07-15T06:44:09.468Z,67.87
2018-07-15T06:45:09.472Z,67.77
2018-07-15T06:46:09.468Z,68.26
2018-07-15T06:47:09.467Z,68.26
2018-07-15T06:48:09.464Z,68.77
2018-07-15T06:49:09.505Z,68.29
2018-07-15T06:50:09.465Z,67.52
2018-07-15T06:51:09.459Z,68.48
2018-07-15T06:52:09.454Z,69.38
2018-07-15T06:53:09.456Z,67.74
2018-07-15T06:54:09.453Z,68.04
2018-07-15T06:55:09.450Z,67.07
2018-07-15T06:56:09.450Z,66.33
2018-07-15T06:57:09.450Z,67.10
2018-07-15T06:58:09.451Z,66.52
2018-07-15T06:59:09.445Z,65.27
2018-07-15T07:00:09.445Z,64.89
2018-07-15T07:01:09.447Z,64.63
2018-07-15T07:02:09.441Z,65.20
2018-07-15T07:03:09.443Z,65.11
2018-07-15T07:04:09.440Z,65.30
2018-07-15T07:05:09.438Z,64.56
2018-07-15T07:06:09.437Z,63.70
2018-07-15T07:07:09.513Z,62.15
2018-07-15T07:08:09.435Z,63.40
2018-07-15T07:09:09.434Z,64.08
2018-07-15T07:10:09.437Z,62.18
2018-07-15T07:11:09.433Z,61.70
2018-07-15T07:12:09.432Z,62.08
2018-07-15T07:13:09.431Z,61.80
2018-07-15T07:14:09.444Z,61.12
2018-07-15T07:15:09.434Z,60.38
2018-07-15T07:16:09.430Z,60.67
2018-07-15T07:17:09.434Z,60.76
2018-07-15T07:18:09.431Z,60.09
2018-07-15T07:19:09.436Z,60.67
2018-07-15T07:20:09.432Z,60.38
2018-07-15T07:21:09.432Z,59.92
2018-07-15T07:22:09.433Z,59.92
2018-07-15T07:23:09.439Z,58.80
2018-07-15T07:24:09.437Z,59.47
2018-07-15T07:25:09.439Z,59.38
2018-07-15T07:26:09.442Z,58.89
2018-07-15T07:27:09.445Z,58.31
2018-07-15T07:28:09.447Z,58.53
2018-07-15T07:29:09.449Z,57.76
2018-07-15T07:30:09.454Z,57.56
2018-07-15T07:31:09.457Z,57.59
2018-07-15T07:32:09.460Z,56.14
2018-07-15T07:33:09.464Z,56.14
2018-07-15T07:34:09.469Z,57.20
2018-07-15T07:35:09.478Z,55.88
2018-07-15T07:36:09.478Z,55.78
2018-07-15T07:37:09.485Z,55.98
2018-07-15T07:38:09.491Z,55.13
2018-07-15T07:39:09.499Z,55.04
2018-07-15T07:40:09.505Z,54.35
2018-07-15T07:41:09.581Z,54.16
2018-07-15T07:42:09.521Z,53.77
2018-07-15T07:43:09.529Z,53.87
2018-07-15T07:44:09.537Z,54.09
2018-07-15T07:45:09.546Z,53.22
2018-07-15T07:46:09.557Z,52.15
2018-07-15T07:47:09.564Z,53.89
2018-07-15T07:48:09.573Z,53.22
2018-07-15T07:49:09.586Z,53.70
2018-07-15T07:50:09.593Z,52.37
2018-07-15T07:51:09.604Z,52.37
2018-07-15T07:52:09.615Z,51.50
2018-07-15T07:53:09.631Z,52.28
2018-07-15T07:54:09.634Z,52.69
2018-07-15T07:55:09.648Z,51.62
2018-07-15T07:56:09.655Z,51.04
2018-07-15T07:57:09.667Z,49.49
2018-07-15T07:58:09.678Z,50.68
2018-07-15T07:59:09.695Z,49.02
2018-07-15T08:00:09.703Z,48.83
2018-07-15T08:01:09.714Z,48.93
2018-07-15T08:02:09.724Z,47.76
2018-07-15T08:03:09.737Z,47.57
2018-07-15T08:04:09.746Z,48.93
2018-07-15T08:05:09.762Z,47.86
2018-07-15T08:06:09.775Z,48.47
2018-07-15T08:07:09.790Z,47.78
2018-07-15T08:08:09.795Z,46.04
2018-07-15T08:09:09.807Z,45.38
2018-07-15T08:10:09.824Z,44.12
2018-07-15T08:11:09.836Z,45.50
2018-07-15T08:12:09.845Z,46.57
2018-07-15T08:13:09.859Z,45.31
2018-07-15T08:14:09.873Z,45.79
2018-07-15T08:15:09.912Z,44.33
2018-07-15T08:16:09.901Z,44.33
2018-07-15T08:17:09.911Z,44.06
2018-07-15T08:18:09.924Z,44.04
2018-07-15T08:19:09.941Z,43.82
2018-07-15T08:20:09.955Z,45.57
2018-07-15T08:21:09.971Z,45.01
2018-07-15T08:22:09.978Z,44.04
2018-07-15T08:24:10.006Z,43.29
2018-07-15T08:25:10.029Z,42.90
2018-07-15T08:26:10.035Z,41.93
2018-07-15T08:27:10.050Z,42.60
2018-07-15T08:28:10.111Z,43.19
2018-07-15T08:29:10.075Z,42.99
2018-07-15T08:30:10.090Z,42.80
2018-07-15T08:31:10.106Z,43.58
2018-07-15T08:32:10.121Z,42.60
2018-07-15T08:33:10.133Z,42.53
2018-07-15T08:34:10.154Z,41.65
2018-07-15T08:35:10.167Z,41.65
2018-07-15T08:36:10.176Z,42.16
2018-07-15T08:37:10.196Z,41.48
2018-07-15T08:38:10.206Z,41.19
2018-07-15T08:39:10.221Z,41.46
2018-07-15T08:40:10.235Z,41.77
2018-07-15T08:41:10.250Z,40.70
2018-07-15T08:42:10.265Z,40.78
2018-07-15T08:43:10.281Z,40.97
2018-07-15T08:44:10.295Z,41.86
2018-07-15T08:45:10.311Z,40.70
2018-07-15T08:46:10.396Z,39.72
2018-07-15T08:47:10.342Z,40.70
2018-07-15T08:48:10.357Z,41.19
2018-07-15T08:49:10.373Z,40.41
2018-07-15T08:50:10.387Z,40.50
2018-07-15T08:51:10.404Z,40.70
2018-07-15T08:52:10.476Z,39.43
2018-07-15T08:53:10.433Z,38.67
2018-07-15T08:54:10.448Z,40.55
2018-07-15T08:55:10.465Z,39.18
2018-07-15T08:56:10.484Z,39.59
2018-07-15T08:57:10.495Z,39.10
2018-07-15T08:58:10.511Z,38.30
2018-07-15T08:59:10.534Z,37.89
2018-07-15T09:00:10.543Z,39.04
2018-07-15T09:01:10.559Z,39.16
2018-07-15T09:02:10.575Z,38.87
2018-07-15T09:03:10.665Z,40.45
2018-07-15T09:04:10.611Z,39.16
2018-07-15T09:05:10.623Z,38.96
2018-07-15T09:06:10.639Z,38.79
2018-07-15T09:07:10.655Z,40.35
2018-07-15T09:08:10.674Z,39.29
2018-07-15T09:09:10.687Z,37.25
2018-07-15T09:10:10.704Z,37.35
2018-07-15T09:11:10.723Z,37.15
2018-07-15T09:12:10.736Z,37.55
2018-07-15T09:13:10.753Z,36.68
2018-07-15T09:14:10.770Z,36.68
2018-07-15T09:15:10.815Z,38.43
2018-07-15T09:16:10.802Z,36.29
2018-07-15T09:17:10.818Z,36.02
2018-07-15T09:18:10.835Z,34.53
2018-07-15T09:19:10.858Z,34.32
2018-07-15T09:20:10.868Z,34.71
2018-07-15T09:21:10.885Z,34.81
2018-07-15T09:22:10.905Z,35.78
2018-07-15T09:23:10.919Z,34.03
2018-07-15T09:24:10.934Z,33.65
2018-07-15T09:25:10.953Z,35.61
2018-07-15T09:26:10.969Z,35.41
2018-07-15T09:27:10.985Z,34.94
2018-07-15T09:28:11.000Z,33.50
2018-07-15T09:29:11.019Z,33.30
2018-07-15T09:30:11.035Z,34.68
2018-07-15T09:31:11.052Z,34.00
2018-07-15T09:32:11.071Z,32.73
2018-07-15T09:33:11.085Z,32.14
2018-07-15T09:34:11.101Z,32.06
2018-07-15T09:35:11.140Z,31.96
2018-07-15T09:36:11.135Z,31.38
2018-07-15T09:37:11.153Z,32.35
2018-07-15T09:38:11.175Z,32.03
2018-07-15T09:39:11.188Z,33.50
2018-07-15T09:40:11.205Z,33.90
2018-07-15T09:41:11.222Z,34.78
2018-07-15T09:42:11.238Z,33.72
2018-07-15T09:43:11.257Z,31.78
2018-07-15T09:44:11.272Z,31.49
2018-07-15T09:45:11.291Z,31.88
2018-07-15T09:46:11.308Z,34.29
2018-07-15T09:47:11.326Z,33.92
2018-07-15T09:48:11.547Z,33.33
2018-07-15T09:49:11.360Z,34.77
2018-07-15T09:50:11.378Z,36.24
2018-07-15T09:51:11.395Z,34.29
2018-07-15T09:52:11.615Z,33.53
2018-07-15T09:53:11.431Z,33.04
2018-07-15T09:54:11.450Z,32.73
2018-07-15T09:55:11.471Z,33.40
2018-07-15T09:56:11.489Z,35.55
2018-07-15T09:57:11.502Z,33.30
2018-07-15T09:58:11.590Z,33.11
2018-07-15T09:59:11.540Z,34.09
2018-07-15T10:00:11.556Z,33.14
2018-07-15T10:01:11.576Z,33.33
2018-07-15T10:02:11.595Z,33.23
2018-07-15T10:03:11.610Z,34.23
2018-07-15T10:04:11.634Z,33.17
2018-07-15T10:05:11.647Z,32.78
2018-07-15T10:06:11.667Z,31.31
2018-07-15T10:07:11.684Z,32.19
2018-07-15T10:08:11.706Z,31.52
2018-07-15T10:09:11.721Z,29.55
2018-07-15T10:10:11.942Z,30.72
2018-07-15T10:11:11.964Z,32.20
2018-07-15T10:12:11.779Z,31.52
2018-07-15T10:13:11.799Z,30.94
2018-07-15T10:14:11.813Z,30.46
2018-07-15T10:15:11.833Z,31.83
2018-07-15T10:16:11.850Z,30.96
2018-07-15T10:17:11.875Z,29.98
2018-07-15T10:18:11.889Z,28.30
2018-07-15T10:19:11.913Z,28.61
2018-07-15T10:20:11.926Z,29.00
2018-07-15T10:21:11.945Z,28.23
2018-07-15T10:22:11.969Z,27.04
2018-07-15T10:23:11.984Z,28.30
2018-07-15T10:24:12.203Z,29.27
2018-07-15T10:25:12.020Z,28.78
2018-07-15T10:27:12.064Z,29.45
2018-07-15T10:28:12.081Z,30.22
2018-07-15T10:29:12.092Z,30.29
2018-07-15T10:30:12.111Z,31.46
2018-07-15T10:31:12.129Z,33.41
2018-07-15T10:32:12.145Z,33.72
2018-07-15T10:33:12.421Z,33.34
2018-07-15T10:34:12.181Z,33.07
2018-07-15T10:35:12.204Z,34.65
2018-07-15T10:36:12.419Z,30.93
2018-07-15T10:37:12.236Z,31.63
2018-07-15T10:38:12.253Z,30.85
2018-07-15T10:39:12.270Z,30.27
2018-07-15T10:40:12.289Z,30.18
2018-07-15T10:41:12.306Z,29.20
2018-07-15T10:42:12.325Z,29.10
2018-07-15T10:43:12.346Z,30.26
2018-07-15T10:44:12.359Z,30.96
2018-07-15T10:45:12.378Z,29.38
2018-07-15T10:46:12.398Z,29.48
2018-07-15T10:47:12.471Z,30.77
2018-07-15T10:48:12.433Z,30.27
2018-07-15T10:49:12.457Z,29.33
2018-07-15T10:50:12.477Z,27.75
2018-07-15T10:51:12.491Z,28.64
2018-07-15T10:52:12.513Z,28.54
2018-07-15T10:53:12.526Z,28.25
2018-07-15T10:54:12.546Z,26.28
2018-07-15T10:55:12.566Z,27.35
2018-07-15T10:56:12.587Z,27.56
2018-07-15T10:57:12.805Z,27.47
2018-07-15T10:58:12.623Z,27.36
2018-07-15T10:59:12.641Z,26.18
2018-07-15T11:00:12.660Z,27.28
2018-07-15T11:01:12.680Z,28.36
2018-07-15T11:02:12.698Z,28.27
2018-07-15T11:03:12.718Z,28.47
2018-07-15T11:04:12.737Z,26.31
2018-07-15T11:05:12.756Z,27.78
2018-07-15T11:06:12.821Z,27.31
2018-07-15T11:07:12.795Z,26.32
2018-07-15T11:08:12.813Z,27.20
2018-07-15T11:09:12.832Z,27.20
2018-07-15T11:10:12.852Z,26.34
2018-07-15T11:11:12.871Z,25.94
2018-07-15T11:12:12.890Z,26.24
2018-07-15T11:13:12.971Z,25.34
2018-07-15T11:14:12.929Z,24.95
2018-07-15T11:15:12.953Z,24.14
2018-07-15T11:16:13.169Z,25.29
2018-07-15T11:17:13.191Z,25.79
2018-07-15T11:18:13.009Z,24.71
2018-07-15T11:19:13.026Z,25.11
2018-07-15T11:20:13.052Z,24.82
2018-07-15T11:21:13.064Z,24.93
2018-07-15T11:22:13.087Z,25.82
2018-07-15T11:23:13.111Z,25.81
2018-07-15T11:24:13.124Z,26.00
2018-07-15T11:25:13.146Z,26.10
2018-07-15T11:26:13.292Z,25.23
2018-07-15T11:27:13.187Z,25.43
2018-07-15T11:28:13.201Z,26.31
2018-07-15T11:29:13.219Z,25.03
2018-07-15T11:30:13.239Z,25.23
2018-07-15T11:31:13.323Z,24.93
2018-07-15T11:32:13.281Z,25.52
2018-07-15T11:33:13.297Z,25.12
2018-07-15T11:34:13.319Z,26.09
2018-07-15T11:35:13.337Z,25.39
2018-07-15T11:36:13.356Z,26.35
2018-07-15T11:37:13.579Z,27.24
2018-07-15T11:38:13.397Z,26.95
2018-07-15T11:39:13.416Z,25.67
2018-07-15T11:40:13.432Z,26.17
2018-07-15T11:41:13.450Z,25.89
2018-07-15T11:42:13.470Z,25.01
2018-07-15T11:43:13.491Z,25.70
2018-07-15T11:44:13.506Z,25.90
2018-07-15T11:45:13.526Z,26.50
2018-07-15T11:46:13.550Z,26.61
2018-07-15T11:47:13.569Z,25.54
2018-07-15T11:48:13.855Z,25.35
2018-07-15T11:49:13.603Z,24.86
2018-07-15T11:50:13.620Z,24.84
2018-07-15T11:51:13.640Z,25.02
2018-07-15T11:52:13.657Z,24.73
2018-07-15T11:53:13.683Z,24.81
2018-07-15T11:54:13.695Z,25.40
2018-07-15T11:55:13.714Z,24.32
2018-07-15T11:56:13.732Z,26.01
2018-07-15T11:57:13.750Z,25.13
2018-07-15T11:58:13.770Z,23.67
2018-07-15T11:59:13.787Z,23.07
2018-07-15T12:00:13.807Z,21.80
2018-07-15T12:01:13.825Z,22.58
2018-07-15T12:02:13.845Z,21.11
2018-07-15T12:03:13.861Z,21.99
2018-07-15T12:04:13.878Z,19.64
2018-07-15T12:05:13.903Z,20.50
2018-07-15T12:06:13.918Z,22.16
2018-07-15T12:07:13.933Z,22.37
2018-07-15T12:08:13.952Z,22.09
2018-07-15T12:09:13.970Z,22.20
2018-07-15T12:10:13.987Z,23.77
2018-07-15T12:11:14.009Z,23.97
2018-07-15T12:12:14.025Z,24.37
2018-07-15T12:13:14.044Z,23.38
2018-07-15T12:14:14.060Z,23.35
2018-07-15T12:15:14.080Z,23.74
2018-07-15T12:16:14.100Z,23.84
2018-07-15T12:17:14.114Z,24.35
2018-07-15T12:18:14.131Z,23.97
2018-07-15T12:19:14.154Z,21.22
2018-07-15T12:20:14.169Z,22.11
2018-07-15T12:21:14.185Z,21.92
2018-07-15T12:22:14.206Z,22.02
2018-07-15T12:23:14.225Z,23.41
2018-07-15T12:24:14.242Z,21.26
2018-07-15T12:25:14.260Z,19.69
2018-07-15T12:26:14.275Z,20.38
2018-07-15T12:27:14.495Z,19.70
2018-07-15T12:28:14.372Z,19.32
2018-07-15T12:29:14.329Z,20.89
2018-07-15T12:30:14.346Z,19.51
2018-07-15T12:31:14.367Z,21.39
2018-07-15T12:32:14.380Z,20.01
2018-07-15T12:33:14.401Z,20.60
2018-07-15T12:34:14.425Z,20.88
2018-07-15T12:35:14.435Z,21.26
2018-07-15T12:36:14.455Z,21.26
2018-07-15T12:37:14.470Z,20.97
2018-07-15T12:39:14.508Z,20.68
2018-07-15T12:40:14.528Z,21.19
2018-07-15T12:41:14.541Z,20.70
2018-07-15T12:42:14.562Z,20.50
2018-07-15T12:43:14.577Z,20.60
2018-07-15T12:44:14.599Z,19.90
2018-07-15T12:45:14.616Z,20.88
2018-07-15T12:46:14.631Z,21.67
2018-07-15T12:47:14.648Z,18.63
2018-07-15T12:48:14.665Z,19.81
2018-07-15T12:49:14.688Z,19.40
2018-07-15T12:50:14.703Z,20.59
2018-07-15T12:51:14.726Z,19.90
2018-07-15T12:52:14.880Z,19.61
2018-07-15T12:53:14.764Z,18.92
2018-07-15T12:54:14.771Z,19.90
2018-07-15T12:55:14.790Z,18.52
2018-07-15T12:56:14.809Z,19.70